Christoph Dragovic

Recruteur - Wolfsberger AC
20 Févr 2028
Dimanche
Processus

Personnalité

Adaptabilité (17) Ambition (3) Controverse (17) Loyauté (8) Pression (18) Professionnalisme (4) Sportivité (1) Tempérament (6)

Profil

Style d'entraînement Démocratique
Diplôme Continental C
Détermination 12
Gestion des joueurs 6
Motivation 9
Discipline 4
Satisfaction professionnelle
100%
Fatigue
0%
Rôle Recruteur
Salaire 32.7K p/s
Contrat 14.03.2028

Performance

Comportement Bon
Efficacité de l'entraînement
40%
Développement des joueurs
40%
Prévention des blessures
50%
Mise en place tactique
25%

Événements récents

A recommandé une cible de transfert maintenant
A recommandé une cible de transfert maintenant
A recommandé une cible de transfert maintenant
A recommandé une cible de transfert maintenant
A participé à une réunion de recrutement maintenant
Négociation de contrat entamée maintenant
Négociation de contrat entamée maintenant
Négociation de contrat entamée maintenant

Suivi en cours

69
Joueur Club Statut Capacité Confiance Observé Dernière observation Dernier vote
Kevin Lienhart Sturm Graz Perdu 100 / 108 72% 1 24.01.2028 Approuver
Luis Otávio Colorado Rapids Négociation 103 / 123 40% 1 02.01.2028 -
Juan Camilo Córdoba Deportivo Pereira Actif 93 / 98 40% 1 02.01.2028 -
Jofre Torrents Ajax Actif 128 / 136 40% 3 01.01.2028 -
Taher Mohamed Real Salt Lake Négociation 119 / 119 67% 1 01.01.2028 Approuver
Aljoša Matko Viborg Négociation 117 / 117 66% 1 01.01.2028 Approuver
Josh Nichols Tranmere Rovers Actif 124 / 127 40% 1 01.01.2028 -
Giovanni Leoni Bradford City Actif 145 / 145 40% 1 01.01.2028 -
Araphat Mohammed Berekum Chelsea Actif 99 / 113 40% 2 12.07.2027 -
Shea Lacey Wolverhampton Actif 129 / 135 40% 2 12.07.2027 -
Kamarni Ryan Burton Albion Actif 103 / 109 40% 1 12.07.2027 -
Kutlwano Letlhaku Ajax Cape Town Actif 117 / 124 40% 3 05.07.2027 -
Khama Dolly Utrecht Négociation 123 / 124 67% 1 01.06.2027 Approuver
Juan Bezerra BK Hacken Négociation 117 / 121 66% 1 01.06.2027 Approuver
Daniel Karlsbakk Sarpsborg 08 Négociation 124 / 126 66% 1 01.06.2027 Approuver
Hazeem Bakre Crawley Town Actif 81 / 88 40% 5 30.05.2027 -
Oscar Schwartau Norwich City Actif 127 / 121 40% 4 30.05.2027 -
Calum Agius Crewe Alexandra Actif 93 / 93 40% 4 29.05.2027 -
Samuele di Benedetto Bari Actif 120 / 120 40% 3 28.05.2027 -
Ethan Williams Peterborough United Actif 110 / 124 40% 2 28.05.2027 -
Caleb Yirenkyi Coventry City Actif 128 / 140 40% 4 27.05.2027 -
Christ Inao Oulaï Fiorentina Actif 131 / 140 40% 1 25.05.2027 -
André Miranda Porto Actif 100 / 107 40% 2 24.05.2027 -
Jan Bürger Gillingham Actif 117 / 116 40% 3 23.05.2027 -
Leo Castledine Middlesbrough Actif 130 / 131 40% 1 23.05.2027 -
Sascha Britschgi Padova Actif 125 / 124 40% 2 20.05.2027 -
Matías Gómez Granada Actif 116 / 115 40% 3 19.05.2027 -
Joel McGregor Swindon Town Actif 86 / 93 40% 2 18.05.2027 -
Thulani Dala Platinum Stars Actif 97 / 101 40% 1 17.05.2027 -
Davide Bartesaghi AC Milan Actif 133 / 136 40% 1 15.05.2027 -
Albert Djiku WAFA Actif 81 / 87 40% 1 14.05.2027 -
Lander Astiazarán Real Sociedad Actif 108 / 115 40% 2 13.05.2027 -
Paulo Cardoso Sporting CP Actif 96 / 99 40% 2 10.05.2027 -
Othmane Maamma Watford Actif 119 / 134 40% 1 06.05.2027 -
Jayden Addai Como Actif 128 / 138 40% 3 04.05.2027 -
Alphadjo Cissé Como Actif 116 / 127 40% 1 01.05.2027 -
Percy Jali Free State Stars Actif 105 / 94 40% 2 28.04.2027 -
Mfundo Vilakazi Kaizer Chiefs Actif 118 / 125 40% 1 28.04.2027 -
Jayden Luker Barnet Actif 94 / 99 40% 1 22.04.2027 -
Ishmael Addo Heart of Lions Actif 80 / 89 40% 1 17.04.2027 -
Christos Mouzakitis Hull City Actif 132 / 137 40% 1 17.04.2027 -
Zane Albarus Cambridge United Actif 89 / 94 40% 2 11.04.2027 -
Riley Owen Trento Actif 107 / 110 40% 2 05.04.2027 -
Ernie Weaver AFC Wimbledon Actif 114 / 119 40% 1 05.04.2027 -
Fuzy Taylor Medeama Actif 76 / 86 40% 1 23.01.2027 -
Mateus Mané Manchester United Actif 138 / 141 40% 2 29.12.2026 Plus d'infos
Ben Ahmed Kohili Paradou Actif 105 / 118 40% 1 27.12.2026 -
Kaio Eduardo Thun Actif 115 / 111 40% 3 24.12.2026 -
Adrien Llukes Sion Actif 89 / 99 40% 4 16.12.2026 -
Darlvin Yeboah Bechem United Actif 75 / 84 40% 2 14.12.2026 -
Michael Noumon Heart of Lions Actif 75 / 75 40% 3 14.12.2026 -
Jonás Luna Santa Clara Actif 109 / 120 40% 3 12.12.2026 -
Rodrigo Ribeiro Bayer Leverkusen Actif 125 / 122 40% 1 03.12.2026 -
Sule John US Forces Armees Actif 74 / 70 40% 1 03.12.2026 -
Hassan Beja AFC Leopards Actif 76 / 95 40% 2 01.12.2026 -
Dramane Kamagaté USM Alger Actif 98 / 121 40% 1 01.12.2026 -
Senny Mayulu Paris Saint-Germain Actif 137 / 141 40% 1 25.11.2026 -
Lévy Néne FC Nordsjaelland Actif 109 / 112 40% 1 20.11.2026 -
Chineme Chinonso Ikorodu City Actif 95 / 101 40% 1 17.11.2026 -
Endrick Real Madrid Actif 147 / 153 40% 1 17.11.2026 -
Víctor Guzmán Sporting CP Actif 86 / 100 40% 1 16.11.2026 -
Williams Furman Black Aces Actif 87 / 80 40% 1 06.11.2026 -
Abdi Ineza Ghazl El Mahalla Actif 82 / 82 40% 1 26.10.2026 -
Tomás Romero Unión de Santa Fe Actif 93 / 109 40% 2 16.10.2026 -
David Kalokoh Ajax Actif 112 / 113 40% 1 11.10.2026 -
Leon Grgić Sturm Graz Actif 118 / 133 40% 1 11.10.2026 -
Mohammed Yahaya Great Olympics Actif 82 / 93 40% 1 07.10.2026 -
Maren Kefas Plateau United Actif 77 / 86 40% 1 05.10.2026 -
Jannis Bärtl Bayern Munich Actif 86 / 88 40% 1 01.08.2026 -